CheckWX is a tool to help pilots better visualize weather data.  It is not intended as a substitute for an official pre-flight weather briefing.

04:20:03 UTC

KOZR METAR
Cairns AAF (Fort Rucker) Airport
Fort Rucker/Ozark, Alabama, USA
Current

24 mins ago

KOZR 270356Z AUTO 34009KT 10SM CLR 27/20 A3017 RMK AO2 SLP215 T02740197 $
Observed
Jun-27 @ 03:56 UTC
Wind
  • 340° at 9 KTS
Visibility
10 SM
Flight Rules
VFR
Cloud Levels
  • Clear skies
Temperature
27°C / 81°F
Dewpoint
20°C / 68°F
Heat Index
29°C / 84°F
Humidity
66%
Altimeter
30.17" Hg
Pressure
1021.72 hPa
Previous

1 hour ago

KOZR 270256Z AUTO 36007KT 10SM CLR 29/20 A3016 RMK AO2 SLP212 T02870196 52018 $
Observed
Jun-27 @ 02:56 UTC
Wind
  • 360° at 7 KTS
Visibility
10 SM
Flight Rules
VFR
Cloud Levels
  • Clear skies
Temperature
29°C / 84°F
Dewpoint
20°C / 68°F
Heat Index
31°C / 87°F
Humidity
58%
Altimeter
30.16" Hg
Pressure
1021.32 hPa
Previous

2 hours ago

KOZR 270218Z AUTO 35006KT 10SM CLR 29/20 A3014 RMK AO2 SLP205 $
Observed
Jun-27 @ 02:18 UTC
Wind
  • 350° at 6 KTS
Visibility
10 SM
Flight Rules
VFR
Cloud Levels
  • Clear skies
Temperature
29°C / 84°F
Dewpoint
20°C / 68°F
Heat Index
31°C / 87°F
Humidity
58%
Altimeter
30.14" Hg
Pressure
1020.62 hPa